KMHE/MHE METAR and TAF weather

Enter ICAO airport designator
Station Type Date Time Source
KMHE METAR 2021/09/19 13:53 UTC NOAA

KMHE 191353Z AUTO 18009KT 10SM CLR 23/16 A2980 RMK AO2 SLP082 T02330161


Station Type Date Time Source
KMHE Decoded METAR 2021/09/19 13:53 UTC NOAA

MITCHELL MUNICIPAL AIRPORT, SD, United States (KMHE) 43-46N 98-02W
Sep 19, 2021 - 09:53 AM EDT / 2021.09.19 1353 UTC
Wind: from the S (180 degrees) at 10 MPH (9 KT):0
Visibility: 10 mile(s):0
Sky conditions: clear
Temperature: 73.9 F (23.3 C)
Dew Point: 61.0 F (16.1 C)
Relative Humidity: 63%
Pressure (altimeter): 29.8 in. Hg (1009 hPa)
ob: KMHE 191353Z AUTO 18009KT 10SM CLR 23/16 A2980 RMK AO2 SLP082 T02330161
cycle: 14

Station Type Date Time Source
KMHE TAF UTC NOAA

Error!

Example: see airport list